Time;durP1;ratioP1;P1;durP2;ratioP2;P2;SDS_P1;SDS_P2;PMS_P1;PMS_P2;Temp;Humidity;BMP_temperature;BMP_pressure;BME280_temperature;BME280_humidity;BME280_pressure;Samples;Min_cycle;Max_cycle;Signal;HPM_P1;HPM_P2
2021/05/10 00:00:36;;;;;;;5.47;3.60;;;;;;;12.79;47.22;100088.61;128268;1098;100874;-82
2021/05/10 00:03:24;;;;;;;6.97;4.00;;;;;;;12.75;47.33;100087.89;128267;1098;100973;-83
2021/05/10 00:06:11;;;;;;;4.58;3.60;;;;;;;12.70;47.25;100093.30;128129;1098;100911;-83
2021/05/10 00:08:59;;;;;;;5.40;3.73;;;;;;;12.65;47.49;100090.05;128187;1098;100963;-83
2021/05/10 00:11:46;;;;;;;7.53;3.60;;;;;;;12.60;47.44;100089.41;128250;1098;100736;-83
2021/05/10 00:15:07;;;;;;;7.38;3.53;;;;;;;12.56;47.76;100093.04;128224;1098;100987;-83
2021/05/10 00:17:47;;;;;;;5.93;3.47;;;;;;;12.50;47.94;100106.39;128225;1098;100684;-82
2021/05/10 00:20:36;;;;;;;4.45;3.55;;;;;;;12.47;48.26;100100.45;128224;1098;100846;-82
2021/05/10 00:23:24;;;;;;;4.37;3.60;;;;;;;12.43;48.44;100104.96;128225;1098;100794;-82
2021/05/10 00:26:11;;;;;;;;;;;;;;;12.38;48.00;100099.05;128111;1098;100819;-82
2021/05/10 00:28:58;;;;;;;8.53;4.37;;;;;;;12.34;48.21;100100.09;128241;1098;100820;-83
2021/05/10 00:31:46;;;;;;;5.98;4.00;;;;;;;12.30;48.21;100098.53;128049;1097;101173;-83
2021/05/10 00:34:33;;;;;;;4.97;3.50;;;;;;;12.26;48.71;100112.66;128223;1098;101376;-82
2021/05/10 00:37:20;;;;;;;;;;;;;;;12.23;48.85;100100.56;128029;1099;100744;-82
2021/05/10 00:40:09;;;;;;;6.50;3.80;;;;;;;12.20;48.86;100102.42;128189;1098;100723;-82
2021/05/10 00:42:57;;;;;;;4.60;3.50;;;;;;;12.16;48.59;100099.09;128223;1098;100635;-83
2021/05/10 00:45:44;;;;;;;6.37;3.80;;;;;;;12.13;49.33;100103.60;128059;1098;100690;-83
2021/05/10 00:48:31;;;;;;;;;;;;;;;12.10;49.15;100091.52;128107;1098;100897;-83
2021/05/10 00:51:18;;;;;;;5.10;3.50;;;;;;;12.03;49.26;100088.30;128211;1098;100927;-82
2021/05/10 00:54:06;;;;;;;6.77;3.57;;;;;;;12.01;49.38;100110.16;128211;1098;100853;-82
2021/05/10 00:56:53;;;;;;;7.10;3.75;;;;;;;11.97;49.64;100083.31;128232;1098;100709;-82
2021/05/10 00:59:40;;;;;;;7.15;3.50;;;;;;;11.94;49.21;100088.66;128255;1098;101265;-82
2021/05/10 01:02:28;;;;;;;6.17;3.30;;;;;;;11.92;49.58;100092.25;128249;1098;100800;-82
2021/05/10 01:05:16;;;;;;;5.37;3.43;;;;;;;11.89;49.54;100085.39;127992;1098;101165;-82
2021/05/10 01:08:06;;;;;;;6.40;4.10;;;;;;;11.85;49.83;100083.82;128033;1098;104093;-83
2021/05/10 01:10:54;;;;;;;6.97;3.43;;;;;;;11.83;50.10;100090.84;128015;1099;100809;-83
2021/05/10 01:13:42;;;;;;;4.90;3.53;;;;;;;11.81;49.89;100082.22;128254;1098;101191;-82
2021/05/10 01:16:29;;;;;;;7.53;3.60;;;;;;;11.77;49.91;100078.84;128096;1098;101969;-83
2021/05/10 01:19:18;;;;;;;4.70;3.27;;;;;;;11.74;50.10;100080.73;128176;1098;101101;-82
2021/05/10 01:22:07;;;;;;;5.47;3.70;;;;;;;11.70;50.13;100080.02;128229;1098;100829;-83
2021/05/10 01:24:55;;;;;;;4.13;3.20;;;;;;;11.67;50.27;100079.26;128076;1098;100713;-82
2021/05/10 01:27:42;;;;;;;5.18;3.85;;;;;;;11.64;50.35;100074.16;128049;1098;100741;-83
2021/05/10 01:30:35;;;;;;;6.93;3.73;;;;;;;11.62;50.40;100078.59;128024;1098;101974;-83
2021/05/10 01:33:23;;;;;;;5.40;3.50;;;;;;;11.58;50.55;100079.63;128200;1098;101005;-83
2021/05/10 01:36:12;;;;;;;4.43;3.20;;;;;;;11.55;50.64;100084.98;128149;1098;100772;-83
2021/05/10 01:38:59;;;;;;;5.03;3.57;;;;;;;11.52;50.75;100079.88;128029;1098;101004;-83
2021/05/10 01:41:46;;;;;;;5.40;3.80;;;;;;;11.48;50.59;100082.59;128248;1098;100669;-83
2021/05/10 01:44:33;;;;;;;5.63;3.78;;;;;;;11.46;50.83;100083.56;128248;1098;101474;-82
2021/05/10 01:47:20;;;;;;;5.90;3.30;;;;;;;11.44;50.96;100081.01;128140;1098;101048;-82
2021/05/10 01:50:22;;;;;;;3.95;3.40;;;;;;;11.41;51.09;100091.58;128071;1098;100791;-82
2021/05/10 01:53:10;;;;;;;7.13;3.60;;;;;;;11.38;50.94;100094.31;128029;1098;100780;-82
2021/05/10 01:55:57;;;;;;;;;;;;;;;11.35;50.99;100091.81;128282;1098;100781;-83
2021/05/10 01:58:50;;;;;;;4.60;3.40;;;;;;;11.32;51.29;100094.55;128245;1098;101096;-82
2021/05/10 02:01:37;;;;;;;5.67;3.27;;;;;;;11.31;51.46;100099.80;128011;1098;100768;-83
2021/05/10 02:04:25;;;;;;;4.40;3.40;;;;;;;11.28;51.78;100110.36;128229;1097;101036;-83
2021/05/10 02:07:12;;;;;;;6.10;3.95;;;;;;;11.25;51.80;100098.28;128251;1098;100718;-83
2021/05/10 02:09:59;;;;;;;6.43;3.35;;;;;;;11.23;51.80;100102.70;128267;1098;100784;-82
2021/05/10 02:12:56;;;;;;;;;;;;;;;11.19;52.29;100101.13;128266;1098;100869;-82
2021/05/10 02:15:49;;;;;;;5.90;3.33;;;;;;;11.16;51.68;100109.92;128224;1098;100717;-82
2021/05/10 02:18:36;;;;;;;5.17;3.13;;;;;;;11.13;52.04;100115.27;128054;1098;101063;-82
2021/05/10 02:21:29;;;;;;;6.20;3.93;;;;;;;11.12;52.30;100128.34;128049;1099;100800;-82
2021/05/10 02:24:16;;;;;;;4.97;3.57;;;;;;;11.08;52.33;100124.15;128243;1098;100855;-82
2021/05/10 02:27:05;;;;;;;4.73;3.03;;;;;;;11.06;52.36;100115.52;128072;1098;101422;-82
2021/05/10 02:29:52;;;;;;;4.73;3.33;;;;;;;11.03;52.30;100115.64;127969;1099;100895;-82
2021/05/10 02:32:38;;;;;;;5.20;3.45;;;;;;;11.00;52.42;100114.00;128048;1098;100830;-82
2021/05/10 02:35:26;;;;;;;7.53;3.55;;;;;;;10.98;52.57;100114.96;128078;1098;100789;-82
2021/05/10 02:38:15;;;;;;;4.83;3.20;;;;;;;10.94;52.52;100124.63;128044;1098;101041;-82
2021/05/10 02:41:03;;;;;;;4.90;3.30;;;;;;;10.91;52.92;100127.36;128256;1098;100802;-83
2021/05/10 02:43:49;;;;;;;5.15;3.25;;;;;;;10.86;52.60;100122.31;128031;1098;100975;-82
2021/05/10 02:46:37;;;;;;;4.83;3.53;;;;;;;10.83;52.86;100127.64;128148;1098;100805;-84
2021/05/10 02:49:24;;;;;;;6.90;3.40;;;;;;;10.81;53.32;100134.67;128044;1098;100751;-84
2021/05/10 02:52:11;;;;;;;;;;;;;;;10.79;52.94;100126.05;128283;1098;100799;-84
2021/05/10 02:54:58;;;;;;;6.57;3.20;;;;;;;10.75;53.32;100127.04;128238;1098;100892;-84
2021/05/10 02:57:50;;;;;;;4.63;3.60;;;;;;;10.73;53.42;100128.00;128011;1098;101074;-84
2021/05/10 03:00:37;;;;;;;4.87;3.30;;;;;;;10.70;53.70;100123.74;128031;1098;102553;-84
2021/05/10 03:03:24;;;;;;;5.80;3.80;;;;;;;10.68;53.49;100128.17;128229;1098;100757;-84
2021/05/10 03:06:11;;;;;;;7.05;3.70;;;;;;;10.67;53.38;100126.47;128170;1098;101023;-84
2021/05/10 03:08:58;;;;;;;7.93;3.90;;;;;;;10.65;53.82;100133.49;128017;1098;101432;-84
2021/05/10 03:11:45;;;;;;;4.78;3.38;;;;;;;10.64;53.83;100137.01;128235;1098;100769;-84
2021/05/10 03:14:32;;;;;;;5.45;3.58;;;;;;;10.62;54.13;100133.61;128052;1098;101071;-84
2021/05/10 03:17:19;;;;;;;5.65;3.45;;;;;;;10.62;53.90;100141.42;128019;1098;100988;-84
2021/05/10 03:20:09;;;;;;;4.58;3.53;;;;;;;10.62;53.90;100138.82;128240;1098;100844;-84
2021/05/10 03:22:57;;;;;;;7.93;3.57;;;;;;;10.63;53.90;100139.67;128219;1098;101434;-84
2021/05/10 03:25:44;;;;;;;8.68;3.38;;;;;;;10.64;53.86;100143.98;128154;1098;100747;-84
2021/05/10 03:28:31;;;;;;;6.15;3.43;;;;;;;10.66;53.68;100145.63;128095;1098;100712;-84
2021/05/10 03:31:18;;;;;;;5.43;3.83;;;;;;;10.67;54.04;100168.20;128263;1098;100944;-84
2021/05/10 03:34:05;;;;;;;;;;;;;;;10.70;53.65;100160.27;128256;1098;100844;-84
2021/05/10 03:36:52;;;;;;;6.13;3.70;;;;;;;10.70;53.79;100178.52;128241;1098;101490;-84
2021/05/10 03:39:39;;;;;;;10.03;3.50;;;;;;;10.73;54.00;100172.34;128194;1098;100741;-84
2021/05/10 03:42:26;;;;;;;;;;;;;;;10.76;53.88;100162.66;128053;1098;101115;-84
2021/05/10 03:45:15;;;;;;;4.90;3.10;;;;;;;10.78;53.61;100160.88;128263;1098;100782;-84
2021/05/10 03:48:02;;;;;;;6.40;3.47;;;;;;;10.83;53.83;100171.14;128082;1098;100779;-83
2021/05/10 03:50:50;;;;;;;6.47;3.73;;;;;;;10.86;53.30;100169.27;128023;1098;101486;-83
2021/05/10 03:53:37;;;;;;;5.88;3.35;;;;;;;10.89;53.37;100190.03;128234;1098;100768;-83
2021/05/10 03:56:24;;;;;;;5.85;3.40;;;;;;;10.93;53.42;100179.48;128212;1098;101106;-83
2021/05/10 03:59:11;;;;;;;7.60;3.35;;;;;;;10.95;53.47;100183.77;128056;1098;100966;-83
2021/05/10 04:02:01;;;;;;;6.83;3.30;;;;;;;10.98;53.45;100170.61;128216;1098;100821;-84
2021/05/10 04:04:56;;;;;;;4.77;3.23;;;;;;;11.02;53.25;100187.86;128032;1098;101923;-84
2021/05/10 04:07:58;;;;;;;5.83;3.57;;;;;;;11.05;52.90;100179.07;128196;1098;100947;-84
2021/05/10 04:13:52;;;;;;;3.63;2.87;;;;;;;11.12;52.68;100164.88;128093;1098;102935;-84
2021/05/10 04:16:39;;;;;;;6.80;3.40;;;;;;;11.16;52.86;100167.35;128244;1098;100969;-84
2021/05/10 04:19:27;;;;;;;4.30;3.03;;;;;;;11.22;52.66;100178.48;128075;1098;101987;-84
2021/05/10 04:22:16;;;;;;;4.63;3.10;;;;;;;11.26;52.66;100173.08;128021;1098;101219;-84
2021/05/10 04:25:04;;;;;;;6.57;3.63;;;;;;;11.30;52.36;100174.66;128213;1098;100741;-84
2021/05/10 04:27:51;;;;;;;4.23;3.50;;;;;;;11.37;52.36;100170.09;128273;1098;100987;-84
2021/05/10 04:30:40;;;;;;;6.00;3.63;;;;;;;11.43;52.23;100185.53;128264;1098;100776;-84
2021/05/10 04:33:28;;;;;;;7.23;3.20;;;;;;;11.50;52.10;100176.58;128023;1098;101493;-84
2021/05/10 04:36:15;;;;;;;6.60;3.40;;;;;;;11.59;51.95;100170.14;128023;1099;100924;-84
2021/05/10 04:39:03;;;;;;;5.63;3.10;;;;;;;11.67;51.76;100170.69;128077;1099;100862;-84
2021/05/10 04:41:50;;;;;;;;;;;;;;;11.74;51.72;100173.03;128053;1098;100879;-84
2021/05/10 04:44:37;;;;;;;6.60;3.27;;;;;;;11.81;51.40;100171.06;128161;1098;100657;-84
2021/05/10 04:47:24;;;;;;;6.25;3.05;;;;;;;11.89;50.90;100186.46;128038;1098;100893;-84
2021/05/10 04:50:11;;;;;;;3.55;2.75;;;;;;;11.97;50.69;100185.24;128234;1098;100764;-84
2021/05/10 04:52:58;;;;;;;;;;;;;;;12.10;50.57;100162.09;128282;1098;100741;-84
2021/05/10 04:55:46;;;;;;;6.00;3.20;;;;;;;12.23;50.50;100170.31;128237;1098;100807;-84
2021/05/10 04:58:33;;;;;;;4.70;3.30;;;;;;;12.38;50.17;100161.81;128218;1098;100728;-84
2021/05/10 05:01:20;;;;;;;;;;;;;;;12.56;49.69;100170.67;128060;1098;101773;-84
2021/05/10 05:04:07;;;;;;;5.63;3.30;;;;;;;12.75;49.56;100160.28;128078;1098;100805;-84
2021/05/10 05:06:54;;;;;;;9.55;3.80;;;;;;;13.04;48.95;100172.98;128220;1098;100748;-84
2021/05/10 05:09:41;;;;;;;7.18;3.00;;;;;;;14.13;48.15;100158.41;128051;1098;102883;-84
2021/05/10 05:12:28;;;;;;;4.15;3.10;;;;;;;16.40;44.55;100172.73;128261;1098;101211;-84
2021/05/10 05:15:19;;;;;;;5.30;3.40;;;;;;;18.49;40.22;100153.69;128042;1098;101914;-83
2021/05/10 05:18:06;;;;;;;3.50;2.53;;;;;;;20.16;37.06;100151.73;128210;1098;101197;-84
2021/05/10 05:20:54;;;;;;;3.18;2.75;;;;;;;21.55;34.53;100135.84;128269;1098;100656;-83
2021/05/10 05:23:41;;;;;;;4.77;3.20;;;;;;;23.01;34.57;100134.38;128046;1098;100962;-82
2021/05/10 05:26:28;;;;;;;3.80;2.73;;;;;;;24.44;30.94;100142.13;128232;1098;101165;-82
2021/05/10 05:29:19;;;;;;;3.90;2.10;;;;;;;25.40;27.66;100142.94;128105;1098;101947;-82
2021/05/10 05:32:06;;;;;;;5.97;2.43;;;;;;;26.12;26.43;100139.47;128026;1099;100953;-83
2021/05/10 05:34:53;;;;;;;5.53;2.73;;;;;;;26.80;25.85;100132.58;128100;1098;100845;-83
2021/05/10 05:37:40;;;;;;;7.03;2.60;;;;;;;27.38;24.59;100131.95;128027;1098;100779;-83
2021/05/10 05:40:27;;;;;;;;;;;;;;;27.98;24.74;100131.84;128052;1098;101032;-83
2021/05/10 05:43:15;;;;;;;4.37;2.60;;;;;;;28.38;24.37;100132.13;128232;1098;101915;-83
2021/05/10 05:46:03;;;;;;;;;;;;;;;28.86;22.46;100142.86;128105;1098;100803;-83
2021/05/10 05:48:50;;;;;;;4.53;1.87;;;;;;;29.20;23.48;100136.42;128157;1098;101186;-83
2021/05/10 05:51:37;;;;;;;5.23;2.40;;;;;;;29.66;22.40;100136.63;128234;1098;100850;-83
2021/05/10 05:54:24;;;;;;;;;;;;;;;29.79;22.53;100123.44;128142;1098;100853;-83
2021/05/10 05:57:11;;;;;;;4.73;2.73;;;;;;;30.34;22.36;100127.82;128223;1098;100799;-83
2021/05/10 06:00:01;;;;;;;4.87;2.43;;;;;;;30.97;21.40;100126.63;127966;1098;101044;-84
2021/05/10 06:02:48;;;;;;;5.10;2.57;;;;;;;31.72;21.88;100110.29;128238;1098;100882;-84
2021/05/10 06:05:35;;;;;;;5.20;2.67;;;;;;;32.33;19.58;100118.88;128024;1098;100743;-83
2021/05/10 06:08:23;;;;;;;5.97;2.20;;;;;;;32.37;19.45;100109.35;128248;1098;100783;-83
2021/05/10 06:11:10;;;;;;;3.60;2.10;;;;;;;32.32;18.84;100119.91;128090;1098;101051;-83
2021/05/10 06:14:04;;;;;;;4.87;2.40;;;;;;;32.53;18.87;100108.25;128171;1098;100876;-84
2021/05/10 06:17:04;;;;;;;9.10;2.70;;;;;;;32.69;19.16;100101.73;128161;1098;101126;-83
2021/05/10 06:19:52;;;;;;;6.03;2.40;;;;;;;32.67;17.21;100118.09;128045;1098;101536;-83
2021/05/10 06:22:40;;;;;;;7.33;2.50;;;;;;;32.57;18.47;100108.69;128259;1098;101146;-83
2021/05/10 06:25:28;;;;;;;4.90;2.00;;;;;;;32.85;18.15;100114.94;128074;1098;101781;-84
2021/05/10 06:28:30;;;;;;;5.60;2.40;;;;;;;33.38;18.28;100112.59;128198;1098;101160;-83
2021/05/10 06:31:17;;;;;;;3.07;2.03;;;;;;;33.44;17.86;100116.38;128082;1098;101044;-84
2021/05/10 06:34:09;;;;;;;5.60;2.17;;;;;;;33.65;17.19;100108.98;127992;1098;101067;-84
2021/05/10 06:36:56;;;;;;;4.70;2.37;;;;;;;33.46;16.74;100112.44;128040;1098;102093;-83
2021/05/10 06:39:43;;;;;;;6.20;2.03;;;;;;;33.40;17.20;100115.95;128033;1098;101974;-83
2021/05/10 06:42:31;;;;;;;4.27;2.27;;;;;;;33.40;16.72;100125.94;128187;1098;100815;-84
2021/05/10 06:45:19;;;;;;;3.30;2.17;;;;;;;33.76;17.51;100104.03;128028;1099;100747;-83
2021/05/10 06:48:05;;;;;;;6.23;2.10;;;;;;;34.32;17.03;100106.47;128046;1098;100759;-84
2021/05/10 06:50:53;;;;;;;6.77;2.30;;;;;;;34.38;16.97;100095.66;128219;1098;100789;-84
2021/05/10 06:53:43;;;;;;;5.30;2.20;;;;;;;34.60;16.83;100107.11;128207;1098;101459;-84
2021/05/10 06:56:33;;;;;;;4.87;2.17;;;;;;;34.68;15.51;100114.20;128022;1099;100792;-85
2021/05/10 06:59:26;;;;;;;4.27;2.27;;;;;;;34.30;15.17;100116.67;128043;1098;100749;-85
2021/05/10 07:02:17;;;;;;;6.87;2.37;;;;;;;34.05;16.16;100103.70;128049;1098;100778;-85
2021/05/10 07:05:18;;;;;;;12.00;3.40;;;;;;;33.93;15.87;100106.20;128224;1098;101593;-85
2021/05/10 07:08:12;;;;;;;5.37;2.00;;;;;;;33.61;15.95;100115.83;128252;1098;101931;-85
2021/05/10 07:10:59;;;;;;;3.73;2.27;;;;;;;33.44;16.45;100114.52;128006;1098;100809;-84
2021/05/10 07:14:12;;;;;;;7.43;2.27;;;;;;;33.53;16.76;100115.99;128113;1098;100734;-84
2021/05/10 07:17:00;;;;;;;10.00;2.63;;;;;;;33.76;17.24;100104.03;128211;1098;100761;-84
2021/05/10 07:19:47;;;;;;;5.60;2.20;;;;;;;33.81;16.38;100096.97;128290;1098;100678;-85
2021/05/10 07:23:12;;;;;;;5.47;2.17;;;;;;;33.54;16.31;100109.55;128257;1098;101592;-84
2021/05/10 07:26:25;;;;;;;3.53;2.03;;;;;;;33.59;16.55;100109.80;128055;1097;102078;-84
2021/05/10 07:29:15;;;;;;;4.23;2.00;;;;;;;33.91;16.95;100091.17;128245;1098;100750;-85
2021/05/10 07:32:07;;;;;;;5.53;1.80;;;;;;;33.79;15.84;100090.09;128042;1098;100706;-85
2021/05/10 07:35:02;;;;;;;5.00;2.20;;;;;;;33.74;16.19;100089.85;128269;1097;101341;-85
2021/05/10 07:37:51;;;;;;;9.53;2.60;;;;;;;33.43;15.79;100096.63;128047;1098;101227;-85
2021/05/10 07:40:40;;;;;;;9.27;1.97;;;;;;;33.13;16.50;100098.72;128210;1098;100795;-84
2021/05/10 07:43:28;;;;;;;2.93;1.80;;;;;;;32.75;15.80;100084.73;128021;1098;101207;-85
2021/05/10 07:46:16;;;;;;;4.03;2.20;;;;;;;32.45;17.18;100090.30;128004;1099;101066;-84
2021/05/10 07:49:03;;;;;;;5.33;1.80;;;;;;;32.29;16.58;100087.04;128249;1098;100796;-84
2021/05/10 07:51:53;;;;;;;8.65;2.10;;;;;;;31.89;16.83;100093.88;128253;1098;101880;-84
2021/05/10 07:54:43;;;;;;;4.80;1.93;;;;;;;31.97;17.66;100102.70;128048;1098;100795;-84
2021/05/10 07:57:46;;;;;;;5.53;1.93;;;;;;;31.54;17.14;100107.97;128083;1098;100677;-84
2021/05/10 08:00:42;;;;;;;3.00;1.90;;;;;;;31.16;17.44;100080.28;128133;1099;100859;-84
2021/05/10 08:03:30;;;;;;;3.83;1.70;;;;;;;31.13;18.16;100083.36;127969;1098;100789;-84
2021/05/10 08:06:18;;;;;;;3.77;1.70;;;;;;;30.89;17.83;100075.56;128024;1098;101560;-84
2021/05/10 08:09:05;;;;;;;4.10;1.60;;;;;;;30.88;17.55;100098.96;128046;1098;100909;-84
2021/05/10 08:11:52;;;;;;;6.00;1.87;;;;;;;30.37;17.43;100069.13;128145;1098;100718;-86
2021/05/10 08:14:39;;;;;;;2.20;1.63;;;;;;;30.02;18.24;100077.78;128245;1098;100691;-83
2021/05/10 08:17:29;;;;;;;2.63;1.40;;;;;;;30.13;18.83;100073.84;128240;1098;100838;-84
2021/05/10 08:20:17;;;;;;;3.93;1.60;;;;;;;30.32;18.47;100078.73;128051;1098;101428;-84
2021/05/10 08:23:11;;;;;;;7.83;1.97;;;;;;;30.57;18.52;100093.67;128018;1098;100819;-83
2021/05/10 08:25:58;;;;;;;3.43;1.80;;;;;;;30.60;19.15;100069.08;128263;1098;100708;-84
2021/05/10 08:28:45;;;;;;;5.60;1.70;;;;;;;30.67;17.76;100079.97;128273;1098;100805;-83
2021/05/10 08:31:33;;;;;;;3.17;1.83;;;;;;;30.30;17.88;100084.30;128221;1098;100852;-83
2021/05/10 08:34:20;;;;;;;6.50;1.60;;;;;;;30.17;18.09;100075.19;128035;1098;101960;-84
2021/05/10 08:37:07;;;;;;;4.87;1.70;;;;;;;30.19;18.65;100073.98;127989;1098;100859;-83
2021/05/10 08:39:56;;;;;;;2.73;1.90;;;;;;;30.02;18.35;100073.23;128038;1098;101379;-83
2021/05/10 08:42:43;;;;;;;2.57;1.63;;;;;;;29.58;18.26;100081.05;128245;1098;100870;-83
2021/05/10 08:45:31;;;;;;;2.30;1.63;;;;;;;29.22;18.65;100074.47;128186;1098;101078;-83
2021/05/10 08:48:18;;;;;;;5.17;1.80;;;;;;;29.00;18.90;100066.16;128036;1098;101698;-84
2021/05/10 08:51:06;;;;;;;1.83;1.67;;;;;;;29.10;19.43;100069.50;128209;1098;101025;-84
2021/05/10 08:53:53;;;;;;;2.55;1.78;;;;;;;29.43;18.62;100088.98;128216;1098;100876;-84
2021/05/10 08:56:40;;;;;;;8.97;1.43;;;;;;;29.35;18.70;100064.85;128265;1098;100626;-84
2021/05/10 08:59:27;;;;;;;6.37;1.70;;;;;;;29.29;19.23;100057.50;128093;1098;101031;-84
2021/05/10 09:02:14;;;;;;;4.43;1.30;;;;;;;29.42;18.74;100070.35;128222;1098;101965;-84
2021/05/10 09:05:17;;;;;;;4.73;1.50;;;;;;;29.24;18.69;100067.07;128163;1098;100883;-84
2021/05/10 09:08:07;;;;;;;6.17;1.57;;;;;;;29.19;19.56;100059.55;128016;1098;101013;-84
2021/05/10 09:11:12;;;;;;;3.37;1.50;;;;;;;29.32;18.98;100059.00;128253;1098;100963;-84
2021/05/10 09:13:59;;;;;;;5.43;1.70;;;;;;;29.21;19.00;100057.52;128025;1098;100745;-84
2021/05/10 09:16:53;;;;;;;5.13;1.53;;;;;;;29.14;19.64;100045.81;128035;1098;101930;-83
2021/05/10 09:19:48;;;;;;;12.70;1.70;;;;;;;29.26;19.52;100044.39;128183;1098;101066;-83
2021/05/10 09:22:52;;;;;;;5.90;1.57;;;;;;;29.25;19.01;100045.41;128243;1098;100733;-83
2021/05/10 09:25:53;;;;;;;2.00;1.30;;;;;;;29.18;18.68;100068.61;128039;1098;100764;-84
2021/05/10 09:28:44;;;;;;;3.53;1.70;;;;;;;29.06;19.12;100056.56;128137;1098;100708;-83
2021/05/10 09:31:34;;;;;;;2.17;1.30;;;;;;;28.88;19.34;100056.78;128006;1098;102362;-83
2021/05/10 09:34:25;;;;;;;3.57;1.30;;;;;;;28.42;18.81;100087.86;128065;1098;100845;-86
2021/05/10 09:37:26;;;;;;;2.87;1.40;;;;;;;27.96;19.04;100099.01;128070;1098;100775;-83
2021/05/10 09:40:13;;;;;;;4.97;1.37;;;;;;;27.81;19.66;100071.16;128060;1098;100744;-83
2021/05/10 09:43:37;;;;;;;1.63;1.30;;;;;;;27.82;19.89;100048.72;128223;1098;100724;-86
2021/05/10 09:46:37;;;;;;;4.50;1.40;;;;;;;27.71;19.80;100051.73;128041;1098;102020;-86
2021/05/10 09:49:42;;;;;;;2.30;1.20;;;;;;;27.48;20.13;100058.68;128189;1098;101003;-85
2021/05/10 09:52:31;;;;;;;9.53;1.60;;;;;;;27.58;20.13;100052.16;128172;1098;100933;-85
2021/05/10 09:55:20;;;;;;;3.60;1.20;;;;;;;27.57;20.01;100055.84;128244;1098;100826;-85
2021/05/10 09:58:07;;;;;;;;;;;;;;;27.40;20.14;100062.15;128286;1098;100725;-86
2021/05/10 10:01:03;;;;;;;4.40;1.50;;;;;;;27.14;20.59;100040.80;128054;1098;102028;-84
2021/05/10 10:04:19;;;;;;;4.07;1.50;;;;;;;27.22;21.03;100035.47;128100;1098;101037;-84
2021/05/10 10:07:10;;;;;;;5.73;1.50;;;;;;;27.42;20.71;100046.75;128223;1098;100811;-84
2021/05/10 10:09:59;;;;;;;6.60;1.40;;;;;;;27.53;20.77;100027.72;128043;1098;100770;-84
2021/05/10 10:12:46;;;;;;;8.20;2.03;;;;;;;27.57;20.41;100050.48;128043;1098;100746;-85
2021/05/10 10:15:33;;;;;;;3.23;1.37;;;;;;;27.44;20.27;100049.27;128038;1098;101975;-85
2021/05/10 10:18:26;;;;;;;4.17;1.27;;;;;;;27.23;20.22;100063.09;128065;1098;101028;-86
2021/05/10 10:21:25;;;;;;;3.70;1.47;;;;;;;27.04;20.69;100040.91;128025;1098;100721;-87
2021/05/10 10:24:14;;;;;;;3.30;1.50;;;;;;;27.05;20.94;100029.20;128031;1098;101651;-86
2021/05/10 10:27:29;;;;;;;5.23;1.57;;;;;;;26.82;21.30;100049.47;128121;1098;100916;-86
2021/05/10 10:30:21;;;;;;;7.10;1.57;;;;;;;26.79;21.30;100026.55;128095;1098;100877;-86
2021/05/10 10:33:34;;;;;;;3.57;1.40;;;;;;;26.57;21.51;100018.20;128029;1098;101173;-86
2021/05/10 10:36:33;;;;;;;3.67;1.60;;;;;;;26.30;21.38;100017.33;128088;1098;101335;-86
2021/05/10 10:39:25;;;;;;;4.43;1.47;;;;;;;26.12;22.30;100021.86;128071;1098;100796;-86
2021/05/10 10:42:29;;;;;;;6.77;1.43;;;;;;;26.10;22.44;100034.55;128247;1098;100823;-87
2021/05/10 10:45:28;;;;;;;4.38;1.40;;;;;;;26.03;22.58;100052.17;128248;1098;100695;-86
2021/05/10 10:48:31;;;;;;;3.53;1.40;;;;;;;25.72;22.95;100033.86;128219;1098;100848;-86
2021/05/10 10:51:19;;;;;;;4.27;1.57;;;;;;;25.54;23.10;100038.31;128186;1098;101060;-86
2021/05/10 10:54:22;;;;;;;4.33;1.23;;;;;;;25.46;23.03;100076.42;128059;1098;101182;-86
2021/05/10 10:57:10;;;;;;;4.37;1.43;;;;;;;25.22;23.34;100026.27;128067;1098;100729;-86
2021/05/10 11:00:21;;;;;;;4.20;1.17;;;;;;;25.10;23.24;100038.11;128257;1098;100734;-85
2021/05/10 11:03:29;;;;;;;4.47;1.40;;;;;;;25.02;23.61;100061.20;128070;1098;100881;-85
2021/05/10 11:06:22;;;;;;;5.00;1.60;;;;;;;24.96;23.57;100060.77;128102;1098;100645;-86
2021/05/10 11:09:09;;;;;;;3.50;1.20;;;;;;;24.93;24.15;100052.19;128034;1098;100765;-86
2021/05/10 11:11:56;;;;;;;1.80;1.18;;;;;;;24.84;23.45;100069.92;128163;1098;101101;-85
2021/05/10 11:14:44;;;;;;;9.50;1.53;;;;;;;24.58;23.84;100048.36;128228;1098;101758;-85
2021/05/10 11:17:54;;;;;;;5.37;1.40;;;;;;;24.36;24.13;100028.20;128052;1098;101447;-86
2021/05/10 11:20:47;;;;;;;1.10;1.00;;;;;;;24.28;24.28;100046.70;128062;1098;101324;-86
2021/05/10 11:23:49;;;;;;;3.10;1.40;;;;;;;24.20;25.17;100037.72;128056;1099;101208;-86
2021/05/10 11:26:50;;;;;;;3.97;1.23;;;;;;;24.13;25.08;100036.62;128050;1098;100693;-86
2021/05/10 11:29:42;;;;;;;3.03;1.40;;;;;;;24.11;24.93;100029.61;128085;1098;101135;-86
2021/05/10 11:32:31;;;;;;;5.43;1.50;;;;;;;24.10;25.27;100014.61;128054;1098;100831;-86
2021/05/10 11:35:25;;;;;;;3.77;1.27;;;;;;;24.09;24.46;100018.25;128088;1098;101177;-85
2021/05/10 11:38:12;;;;;;;3.20;1.03;;;;;;;24.07;24.85;100001.57;128227;1098;100883;-86
2021/05/10 11:40:59;;;;;;;7.33;1.33;;;;;;;24.19;25.26;100017.39;128265;1098;100840;-85
2021/05/10 11:43:46;;;;;;;3.07;1.40;;;;;;;24.25;25.26;100024.84;128216;1098;101046;-85
2021/05/10 11:46:41;;;;;;;5.15;1.18;;;;;;;24.21;25.11;100034.91;128215;1098;100693;-85
2021/05/10 11:49:32;;;;;;;5.97;1.53;;;;;;;24.14;25.08;100019.64;128064;1098;100919;-87
2021/05/10 11:52:24;;;;;;;2.33;1.23;;;;;;;24.10;25.05;99993.29;128252;1098;100810;-86
2021/05/10 11:55:15;;;;;;;3.53;1.40;;;;;;;24.06;24.87;100007.05;128073;1098;100832;-84
2021/05/10 11:58:03;;;;;;;2.20;1.40;;;;;;;24.04;24.99;99985.84;127987;1098;102427;-84
2021/05/10 12:00:51;;;;;;;2.33;1.30;;;;;;;24.08;25.02;99995.27;128228;1098;100779;-84
2021/05/10 12:03:38;;;;;;;5.30;1.30;;;;;;;24.07;25.13;99993.58;128231;1098;100821;-85
2021/05/10 12:06:29;;;;;;;3.18;1.20;;;;;;;24.06;24.74;100013.22;128108;1098;100931;-85
2021/05/10 12:09:38;;;;;;;2.30;1.23;;;;;;;24.05;25.17;100015.98;128109;1098;100810;-83
2021/05/10 12:12:35;;;;;;;6.17;1.40;;;;;;;24.09;25.02;99986.28;128119;1097;101566;-83
2021/05/10 12:15:24;;;;;;;2.10;1.40;;;;;;;24.17;25.38;99972.23;128209;1098;100851;-83
2021/05/10 12:18:11;;;;;;;6.00;1.40;;;;;;;24.28;25.29;99973.91;128130;1098;100791;-84
2021/05/10 12:20:58;;;;;;;3.73;1.13;;;;;;;24.31;25.23;99989.64;128033;1098;100805;-84
2021/05/10 12:23:46;;;;;;;4.17;1.57;;;;;;;24.24;24.87;99993.84;128038;1098;100715;-85
2021/05/10 12:26:33;;;;;;;3.93;1.40;;;;;;;24.18;24.91;99987.23;128042;1099;101830;-85
2021/05/10 12:29:20;;;;;;;5.78;1.38;;;;;;;24.17;25.32;99977.56;128227;1098;100805;-85
2021/05/10 12:32:07;;;;;;;3.18;1.20;;;;;;;24.20;24.68;99989.76;128152;1098;100903;-85
2021/05/10 12:34:55;;;;;;;4.23;1.27;;;;;;;24.21;24.92;99996.77;128063;1098;101200;-86
2021/05/10 12:37:47;;;;;;;3.73;1.20;;;;;;;24.07;24.64;99998.06;128066;1098;101021;-87
2021/05/10 12:40:52;;;;;;;9.27;1.40;;;;;;;24.05;25.01;99976.87;128063;1098;101913;-84
2021/05/10 12:44:10;;;;;;;4.03;1.40;;;;;;;24.03;25.12;99970.00;128034;1098;101344;-87
2021/05/10 12:46:57;;;;;;;7.30;1.60;;;;;;;24.05;25.28;99954.72;128077;1098;100695;-86
2021/05/10 12:49:44;;;;;;;3.23;1.40;;;;;;;24.10;25.28;99952.48;128255;1098;100692;-86
2021/05/10 12:52:52;;;;;;;4.10;1.27;;;;;;;24.15;25.47;99955.55;128296;1098;101047;-86
2021/05/10 12:55:40;;;;;;;3.20;1.17;;;;;;;24.15;25.08;99949.38;128093;1098;100778;-86
2021/05/10 12:58:32;;;;;;;5.40;1.60;;;;;;;24.12;25.12;99942.52;128044;1098;102876;-85
2021/05/10 13:01:30;;;;;;;6.90;1.40;;;;;;;24.19;25.06;99954.28;128131;1098;100764;-85
2021/05/10 13:04:21;;;;;;;2.93;1.20;;;;;;;24.18;25.02;99941.09;128066;1098;100645;-84